createdAt,value
2023-02-18T00:01:42.587Z,17.30
2023-02-18T00:04:09.977Z,20.35
2023-02-18T00:06:38.839Z,18.88
2023-02-18T00:09:06.975Z,17.65
2023-02-18T00:11:36.811Z,18.45
2023-02-18T00:14:10.959Z,18.80
2023-02-18T00:16:38.287Z,21.10
2023-02-18T00:19:09.462Z,18.33
2023-02-18T00:21:37.273Z,17.50
2023-02-18T00:24:07.079Z,20.08
2023-02-18T00:26:35.585Z,20.80
2023-02-18T00:29:04.481Z,19.65
2023-02-18T00:31:36.842Z,17.38
2023-02-18T00:34:05.839Z,19.92
2023-02-18T00:36:35.587Z,21.83
2023-02-18T00:39:07.852Z,20.85
2023-02-18T00:41:36.518Z,21.90
2023-02-18T00:44:04.584Z,19.27
2023-02-18T00:46:32.748Z,20.65
2023-02-18T00:49:01.884Z,21.00
2023-02-18T00:51:29.146Z,21.15
2023-02-18T00:53:57.385Z,25.30
2023-02-18T00:56:24.776Z,22.95
2023-02-18T00:58:52.339Z,20.80
2023-02-18T01:01:20.719Z,20.00
2023-02-18T01:03:47.975Z,18.83
2023-02-18T01:06:15.362Z,23.67
2023-02-18T01:08:43.383Z,22.35
2023-02-18T01:11:12.658Z,22.13
2023-02-18T01:13:41.667Z,21.92
2023-02-18T01:18:38.980Z,21.02
2023-02-18T01:21:09.067Z,18.50
2023-02-18T01:23:41.883Z,24.30
2023-02-18T01:26:11.623Z,24.02
2023-02-18T01:28:41.555Z,23.85
2023-02-18T01:31:13.906Z,21.90
2023-02-18T01:33:42.302Z,22.60
2023-02-18T01:36:11.831Z,20.92
2023-02-18T01:38:39.564Z,22.58
2023-02-18T01:41:08.045Z,21.20
2023-02-18T01:43:35.466Z,20.83
2023-02-18T01:46:18.185Z,20.13
2023-02-18T01:49:00.750Z,21.17
2023-02-18T01:51:40.358Z,20.83
2023-02-18T01:54:39.917Z,19.08
2023-02-18T01:57:14.706Z,19.60
2023-02-18T02:00:06.312Z,19.35
2023-02-18T02:02:47.618Z,20.40
2023-02-18T02:05:16.725Z,19.08
2023-02-18T02:07:46.397Z,22.27
2023-02-18T02:10:16.788Z,22.00
2023-02-18T02:13:13.071Z,22.65
2023-02-18T02:15:45.197Z,20.85
2023-02-18T02:18:50.236Z,28.02
2023-02-18T02:22:13.499Z,22.70
2023-02-18T02:25:14.693Z,20.92
2023-02-18T02:28:21.880Z,18.38
2023-02-18T02:31:35.914Z,18.20
2023-02-18T02:34:49.329Z,19.75
2023-02-18T02:37:42.690Z,21.50
2023-02-18T02:40:46.441Z,22.70
2023-02-18T02:43:29.300Z,19.63
2023-02-18T02:46:13.015Z,18.42
2023-02-18T02:48:51.465Z,18.95
2023-02-18T02:51:44.185Z,19.05
2023-02-18T02:54:21.635Z,20.88
2023-02-18T02:56:50.334Z,18.00
2023-02-18T02:59:27.156Z,18.67
2023-02-18T03:02:55.100Z,20.08
2023-02-18T03:05:57.859Z,21.80
2023-02-18T03:09:20.285Z,19.20
2023-02-18T03:12:58.288Z,26.05
2023-02-18T03:16:03.953Z,17.90
2023-02-18T03:21:35.794Z,16.17
2023-02-18T03:24:21.468Z,21.52
2023-02-18T03:26:56.731Z,19.55
2023-02-18T03:29:25.025Z,20.55
2023-02-18T03:32:02.329Z,23.63
2023-02-18T03:34:36.593Z,22.88
2023-02-18T03:37:03.945Z,20.83
2023-02-18T03:39:35.242Z,19.98
2023-02-18T03:42:04.717Z,22.65
2023-02-18T03:44:32.303Z,23.40
2023-02-18T03:46:59.702Z,18.40
2023-02-18T03:49:26.925Z,21.73
2023-02-18T03:51:54.184Z,20.73
2023-02-18T03:54:21.567Z,18.17
2023-02-18T03:56:48.905Z,21.02
2023-02-18T03:59:16.145Z,23.08
2023-02-18T04:01:43.538Z,23.50
2023-02-18T04:04:11.005Z,22.33
2023-02-18T04:06:38.239Z,21.50
2023-02-18T04:09:08.877Z,22.10
2023-02-18T04:11:40.739Z,18.30
2023-02-18T04:14:09.436Z,19.77
2023-02-18T04:16:36.669Z,22.77
2023-02-18T04:19:04.056Z,20.90
2023-02-18T04:21:31.406Z,22.80
2023-02-18T04:23:59.088Z,18.17
2023-02-18T04:26:26.367Z,25.52
2023-02-18T04:28:54.662Z,25.83
2023-02-18T04:31:22.221Z,19.10
2023-02-18T04:33:49.647Z,20.48
2023-02-18T04:36:16.908Z,20.50
2023-02-18T04:38:44.174Z,20.92
2023-02-18T04:41:12.763Z,23.00
2023-02-18T04:43:40.010Z,20.45
2023-02-18T04:46:07.593Z,20.60
2023-02-18T04:48:35.279Z,21.02
2023-02-18T04:51:03.272Z,20.15
2023-02-18T04:53:30.548Z,26.27
2023-02-18T04:55:57.812Z,17.20
2023-02-18T04:58:25.195Z,21.25
2023-02-18T05:00:53.869Z,20.45
2023-02-18T05:03:21.560Z,24.30
2023-02-18T05:05:48.878Z,20.70
2023-02-18T05:08:16.353Z,23.00
2023-02-18T05:10:43.613Z,18.58
2023-02-18T05:13:10.948Z,19.77
2023-02-18T05:15:38.268Z,21.83
2023-02-18T05:18:05.841Z,25.00
2023-02-18T05:20:33.542Z,19.88
2023-02-18T05:23:00.764Z,23.50
2023-02-18T05:25:28.196Z,21.00
2023-02-18T05:27:55.493Z,21.23
2023-02-18T05:30:22.704Z,21.17
2023-02-18T05:32:50.020Z,23.23
2023-02-18T05:35:17.468Z,20.63
2023-02-18T05:37:44.708Z,21.58
2023-02-18T05:40:14.422Z,25.25
2023-02-18T05:42:41.708Z,26.40
2023-02-18T05:45:09.656Z,24.45
2023-02-18T05:47:37.027Z,21.60
2023-02-18T05:50:05.583Z,22.90
2023-02-18T05:52:32.815Z,22.10
2023-02-18T05:55:00.089Z,25.20
2023-02-18T05:57:27.296Z,21.60
2023-02-18T05:59:54.540Z,22.75
2023-02-18T06:02:21.846Z,22.45
2023-02-18T06:04:49.244Z,21.35
2023-02-18T06:07:16.620Z,22.85
2023-02-18T06:09:44.297Z,24.05
2023-02-18T06:12:11.531Z,18.70
2023-02-18T06:14:42.206Z,22.50
2023-02-18T06:17:12.185Z,25.08
2023-02-18T06:19:39.790Z,24.88
2023-02-18T06:22:08.078Z,23.80
2023-02-18T06:24:37.906Z,26.17
2023-02-18T06:27:05.353Z,26.45
2023-02-18T06:29:32.739Z,29.10
2023-02-18T06:32:00.399Z,27.75
2023-02-18T06:34:28.125Z,30.80
2023-02-18T06:36:55.486Z,24.17
2023-02-18T06:39:22.865Z,27.67
2023-02-18T06:41:50.029Z,27.10
2023-02-18T06:44:17.404Z,26.73
2023-02-18T06:46:45.228Z,27.20
2023-02-18T06:49:12.588Z,26.10
2023-02-18T06:51:39.767Z,28.08
2023-02-18T06:54:07.135Z,31.30
2023-02-18T06:56:34.437Z,29.98
2023-02-18T06:59:01.757Z,28.55
2023-02-18T07:01:30.011Z,30.60
2023-02-18T07:03:57.201Z,31.90
2023-02-18T07:06:24.561Z,31.67
2023-02-18T07:08:51.777Z,25.58
2023-02-18T07:11:18.983Z,29.27
2023-02-18T07:13:46.246Z,26.23
2023-02-18T07:16:13.584Z,29.92
2023-02-18T07:18:40.913Z,29.13
2023-02-18T07:21:08.236Z,28.83
2023-02-18T07:23:35.580Z,30.35
2023-02-18T07:26:10.604Z,25.70
2023-02-18T07:28:39.632Z,31.58
2023-02-18T07:31:07.480Z,30.00
2023-02-18T07:33:34.930Z,32.53
2023-02-18T07:36:03.970Z,28.48
2023-02-18T07:38:31.503Z,32.67
2023-02-18T07:40:59.628Z,30.23
2023-02-18T07:43:27.149Z,29.95
2023-02-18T07:45:55.124Z,30.60
2023-02-18T07:48:22.347Z,31.90
2023-02-18T07:50:49.632Z,33.22
2023-02-18T07:53:17.424Z,32.58
2023-02-18T07:55:50.690Z,28.83
2023-02-18T07:58:26.226Z,31.17
2023-02-18T08:00:54.638Z,28.08
2023-02-18T08:05:57.647Z,29.20
2023-02-18T08:08:29.664Z,32.05
2023-02-18T08:11:18.108Z,35.97
2023-02-18T08:13:47.381Z,32.63
2023-02-18T08:16:20.854Z,30.65
2023-02-18T08:18:50.805Z,29.35
2023-02-18T08:21:20.966Z,30.92
2023-02-18T08:23:48.857Z,29.63
2023-02-18T08:26:17.122Z,30.25
2023-02-18T08:28:47.031Z,29.42
2023-02-18T08:31:30.402Z,25.67
2023-02-18T08:34:00.566Z,27.30
2023-02-18T08:36:30.394Z,28.55
2023-02-18T08:38:58.422Z,30.80
2023-02-18T08:41:25.604Z,26.65
2023-02-18T08:43:52.959Z,29.65
2023-02-18T08:46:33.191Z,31.70
2023-02-18T08:49:05.466Z,27.55
2023-02-18T08:51:33.578Z,32.60
2023-02-18T08:54:00.864Z,32.17
2023-02-18T08:56:28.270Z,28.73
2023-02-18T08:58:55.419Z,32.92
2023-02-18T09:01:22.733Z,30.02
2023-02-18T09:03:50.023Z,31.50
2023-02-18T09:06:17.224Z,30.40
2023-02-18T09:08:45.024Z,31.13
2023-02-18T09:11:12.427Z,29.00
2023-02-18T09:13:39.837Z,28.98
2023-02-18T09:16:13.434Z,29.02
2023-02-18T09:18:41.146Z,31.88
2023-02-18T09:21:11.949Z,28.40
2023-02-18T09:23:40.139Z,31.73
2023-02-18T09:26:11.896Z,26.75
2023-02-18T09:28:39.628Z,28.98
2023-02-18T09:31:16.156Z,33.08
2023-02-18T09:34:01.262Z,26.95
2023-02-18T09:36:29.370Z,29.60
2023-02-18T09:38:56.837Z,26.35
2023-02-18T09:41:39.905Z,30.55
2023-02-18T09:44:52.862Z,28.00
2023-02-18T09:47:39.854Z,30.83
2023-02-18T09:50:32.708Z,29.95
2023-02-18T09:53:03.464Z,29.83
2023-02-18T09:55:39.584Z,30.83
2023-02-18T09:58:21.831Z,31.58
2023-02-18T10:01:27.970Z,29.15
2023-02-18T10:04:01.802Z,27.40
2023-02-18T10:06:35.227Z,27.60
2023-02-18T10:09:22.990Z,30.05
2023-02-18T10:12:19.670Z,21.55
2023-02-18T10:14:55.338Z,17.27
2023-02-18T10:17:28.607Z,16.63
2023-02-18T10:19:58.537Z,16.33
2023-02-18T10:22:27.774Z,14.10
2023-02-18T10:25:00.768Z,15.57
2023-02-18T10:27:36.388Z,16.02
2023-02-18T10:30:24.859Z,15.80
2023-02-18T10:33:08.196Z,15.55
2023-02-18T10:35:46.039Z,14.27
2023-02-18T10:39:02.994Z,15.32
2023-02-18T10:42:19.844Z,15.60
2023-02-18T10:45:16.642Z,13.73
2023-02-18T10:48:15.969Z,15.40
2023-02-18T10:50:45.600Z,16.98
2023-02-18T10:53:31.506Z,15.93
2023-02-18T10:55:59.050Z,15.40
2023-02-18T10:58:46.518Z,12.32
2023-02-18T11:01:21.269Z,11.48
2023-02-18T11:04:05.545Z,13.15
2023-02-18T11:06:48.605Z,12.15
2023-02-18T11:09:46.525Z,14.60
2023-02-18T11:12:49.320Z,14.65
2023-02-18T11:15:26.114Z,11.93
2023-02-18T11:18:12.754Z,12.40
2023-02-18T11:20:40.677Z,14.70
2023-02-18T11:23:07.728Z,15.05
2023-02-18T11:25:41.201Z,15.85
2023-02-18T11:28:17.239Z,13.48
2023-02-18T11:30:53.351Z,12.55
2023-02-18T11:33:34.802Z,12.35
2023-02-18T11:36:24.103Z,13.38
2023-02-18T11:39:04.516Z,13.80
2023-02-18T11:41:44.684Z,14.05
2023-02-18T11:44:36.610Z,13.55
2023-02-18T11:47:13.223Z,13.90
2023-02-18T11:49:43.688Z,12.00
2023-02-18T11:52:35.648Z,9.93
2023-02-18T11:55:31.009Z,13.88
2023-02-18T11:58:05.621Z,14.65
2023-02-18T12:00:47.327Z,14.80
2023-02-18T12:04:01.347Z,9.80
2023-02-18T12:06:57.389Z,15.43
2023-02-18T12:09:37.528Z,12.23
2023-02-18T12:12:14.555Z,12.73
2023-02-18T12:14:41.869Z,12.55
2023-02-18T12:17:30.857Z,12.55
2023-02-18T12:20:38.522Z,14.57
2023-02-18T12:23:43.082Z,14.18
2023-02-18T12:26:37.288Z,15.52
2023-02-18T12:29:51.486Z,15.05
2023-02-18T12:32:52.691Z,12.23
2023-02-18T12:36:12.655Z,15.38
2023-02-18T12:38:56.117Z,13.70
2023-02-18T12:41:57.348Z,13.07
2023-02-18T12:45:38.691Z,15.15
2023-02-18T12:48:55.456Z,13.38
2023-02-18T12:51:56.976Z,13.48
2023-02-18T12:54:47.737Z,14.82
2023-02-18T12:57:44.044Z,13.10
2023-02-18T13:00:32.604Z,14.40
2023-02-18T13:03:38.874Z,13.40
2023-02-18T13:06:47.559Z,11.68
2023-02-18T13:09:38.677Z,14.63
2023-02-18T13:12:47.893Z,11.48
2023-02-18T13:15:41.118Z,15.02
2023-02-18T13:18:40.843Z,13.23
2023-02-18T13:21:13.713Z,14.90
2023-02-18T13:24:12.092Z,11.80
2023-02-18T13:26:41.826Z,14.05
2023-02-18T13:29:35.160Z,13.63
2023-02-18T13:32:29.755Z,12.88
2023-02-18T13:35:27.561Z,12.88
2023-02-18T13:38:17.687Z,14.32
2023-02-18T13:40:45.512Z,12.48
2023-02-18T13:43:35.703Z,13.13
2023-02-18T13:46:20.474Z,11.60
2023-02-18T13:49:01.137Z,15.27
2023-02-18T13:51:44.607Z,11.20
2023-02-18T13:54:17.553Z,11.02
2023-02-18T13:57:07.806Z,17.75
2023-02-18T13:59:44.434Z,9.65
2023-02-18T14:02:20.809Z,11.82
2023-02-18T14:05:08.674Z,12.15
2023-02-18T14:07:44.200Z,11.05
2023-02-18T14:10:16.994Z,10.77
2023-02-18T14:12:56.168Z,10.27
2023-02-18T14:15:23.342Z,13.07
2023-02-18T14:18:13.704Z,8.55
2023-02-18T14:20:40.728Z,12.57
2023-02-18T14:23:22.627Z,11.10
2023-02-18T14:26:12.475Z,11.38
2023-02-18T14:28:47.858Z,12.73
2023-02-18T14:31:46.218Z,12.10
2023-02-18T14:35:17.883Z,12.57
2023-02-18T14:38:23.628Z,13.35
2023-02-18T14:41:46.432Z,13.45
2023-02-18T14:45:09.926Z,11.98
2023-02-18T14:48:24.699Z,10.50
2023-02-18T14:50:53.252Z,15.27
2023-02-18T14:53:25.148Z,14.43
2023-02-18T14:56:01.975Z,11.10
2023-02-18T14:58:43.134Z,11.93
2023-02-18T15:01:33.069Z,11.10
2023-02-18T15:04:03.032Z,12.20
2023-02-18T15:06:37.584Z,11.45
2023-02-18T15:09:20.471Z,12.95
2023-02-18T15:12:00.800Z,11.15
2023-02-18T15:14:39.755Z,11.73
2023-02-18T15:17:15.699Z,12.13
2023-02-18T15:19:50.726Z,11.75
2023-02-18T15:22:27.053Z,16.63
2023-02-18T15:24:55.856Z,11.15
2023-02-18T15:27:39.222Z,11.05
2023-02-18T15:30:31.201Z,10.30
2023-02-18T15:33:01.179Z,15.05
2023-02-18T15:35:33.275Z,11.68
2023-02-18T15:38:01.907Z,10.63
2023-02-18T15:40:37.538Z,9.60
2023-02-18T15:43:06.579Z,11.45
2023-02-18T15:45:44.731Z,10.77
2023-02-18T15:48:44.465Z,12.25
2023-02-18T15:51:22.209Z,9.70
2023-02-18T15:53:55.086Z,16.23
2023-02-18T15:56:36.833Z,9.85
2023-02-18T15:59:17.463Z,10.18
2023-02-18T16:01:57.768Z,9.10
2023-02-18T16:04:33.811Z,10.50
2023-02-18T16:07:20.466Z,9.45
2023-02-18T16:09:47.721Z,9.02
2023-02-18T16:12:32.399Z,6.80
2023-02-18T16:15:00.924Z,7.75
2023-02-18T16:17:29.930Z,7.03
2023-02-18T16:20:24.749Z,6.78
2023-02-18T16:22:55.002Z,6.70
2023-02-18T16:25:35.831Z,8.18
2023-02-18T16:28:07.050Z,7.30
2023-02-18T16:30:35.616Z,7.95
2023-02-18T16:33:03.449Z,7.40
2023-02-18T16:35:47.456Z,6.85
2023-02-18T16:38:24.476Z,7.05
2023-02-18T16:40:54.199Z,7.72
2023-02-18T16:43:27.307Z,8.85
2023-02-18T16:45:59.305Z,6.18
2023-02-18T16:48:40.513Z,7.28
2023-02-18T16:51:17.995Z,8.90
2023-02-18T16:53:47.675Z,8.43
2023-02-18T16:56:32.678Z,7.88
2023-02-18T16:59:00.115Z,6.40
2023-02-18T17:01:31.842Z,8.18
2023-02-18T17:04:02.063Z,5.28
2023-02-18T17:06:29.948Z,7.32
2023-02-18T17:08:57.229Z,6.43
2023-02-18T17:11:32.541Z,7.20
2023-02-18T17:14:00.604Z,6.72
2023-02-18T17:16:28.808Z,11.93
2023-02-18T17:21:25.723Z,6.78
2023-02-18T17:23:53.687Z,6.07
2023-02-18T17:26:27.835Z,6.03
2023-02-18T17:28:59.048Z,7.07
2023-02-18T17:31:44.328Z,6.30
2023-02-18T17:34:25.534Z,6.63
2023-02-18T17:36:52.763Z,8.73
2023-02-18T17:39:21.301Z,9.40
2023-02-18T17:41:48.707Z,8.48
2023-02-18T17:44:25.965Z,8.85
2023-02-18T17:46:54.785Z,9.80
2023-02-18T17:49:22.558Z,7.68
2023-02-18T17:51:53.101Z,7.35
2023-02-18T17:54:22.803Z,8.25
2023-02-18T17:56:50.286Z,6.55
2023-02-18T17:59:17.502Z,9.38
2023-02-18T18:01:44.789Z,5.97
2023-02-18T18:04:19.001Z,12.95
2023-02-18T18:06:47.047Z,8.35
2023-02-18T18:09:14.442Z,7.78
2023-02-18T18:11:41.708Z,7.72
2023-02-18T18:14:14.200Z,8.38
2023-02-18T18:16:41.393Z,7.10
2023-02-18T18:19:08.603Z,7.85
2023-02-18T18:21:36.767Z,11.35
2023-02-18T18:24:04.980Z,9.55
2023-02-18T18:26:32.293Z,8.15
2023-02-18T18:28:59.815Z,8.75
2023-02-18T18:31:27.061Z,8.57
2023-02-18T18:33:54.384Z,7.90
2023-02-18T18:36:24.078Z,10.07
2023-02-18T18:38:52.025Z,9.85
2023-02-18T18:41:23.184Z,8.73
2023-02-18T18:43:50.968Z,11.52
2023-02-18T18:46:18.706Z,8.95
2023-02-18T18:48:46.112Z,7.88
2023-02-18T18:51:23.250Z,9.60
2023-02-18T18:53:50.491Z,12.93
2023-02-18T18:56:17.711Z,7.80
2023-02-18T18:58:44.941Z,8.77
2023-02-18T19:01:20.735Z,9.40
2023-02-18T19:03:48.801Z,8.45
2023-02-18T19:06:17.096Z,9.13
2023-02-18T19:11:14.318Z,9.63
2023-02-18T19:13:42.275Z,8.27
2023-02-18T19:16:29.523Z,9.57
2023-02-18T19:18:56.728Z,9.55
2023-02-18T19:21:23.912Z,8.88
2023-02-18T19:23:51.184Z,9.32
2023-02-18T19:26:18.433Z,9.75
2023-02-18T19:28:46.811Z,10.60
2023-02-18T19:31:14.629Z,10.07
2023-02-18T19:33:45.490Z,9.57
2023-02-18T19:36:14.697Z,8.57
2023-02-18T19:38:41.913Z,8.98
2023-02-18T19:41:13.757Z,10.50
2023-02-18T19:43:42.685Z,10.32
2023-02-18T19:46:14.008Z,8.00
2023-02-18T19:48:42.501Z,8.77
2023-02-18T19:51:10.656Z,6.93
2023-02-18T19:53:38.342Z,8.48
2023-02-18T19:56:07.312Z,7.40
2023-02-18T19:58:35.805Z,10.45
2023-02-18T20:01:03.816Z,10.65
2023-02-18T20:03:31.099Z,10.05
2023-02-18T20:05:58.308Z,13.18
2023-02-18T20:08:25.543Z,12.32
2023-02-18T20:11:00.030Z,9.93
2023-02-18T20:13:29.024Z,10.32
2023-02-18T20:15:58.043Z,8.32
2023-02-18T20:18:25.477Z,10.85
2023-02-18T20:20:52.655Z,10.38
2023-02-18T20:23:19.977Z,11.38
2023-02-18T20:25:47.592Z,9.40
2023-02-18T20:28:15.898Z,10.05
2023-02-18T20:33:11.529Z,13.65
2023-02-18T20:35:38.733Z,12.93
2023-02-18T20:38:05.988Z,15.60
2023-02-18T20:40:33.146Z,13.10
2023-02-18T20:43:00.530Z,11.27
2023-02-18T20:45:27.952Z,14.68
2023-02-18T20:47:55.242Z,12.15
2023-02-18T20:50:22.442Z,12.27
2023-02-18T20:52:49.629Z,15.85
2023-02-18T20:55:16.979Z,11.23
2023-02-18T20:57:44.224Z,13.88
2023-02-18T21:00:13.098Z,12.73
2023-02-18T21:02:40.375Z,15.38
2023-02-18T21:05:08.238Z,13.85
2023-02-18T21:07:35.541Z,15.05
2023-02-18T21:10:04.100Z,15.38
2023-02-18T21:12:31.299Z,15.50
2023-02-18T21:15:01.128Z,13.85
2023-02-18T21:17:28.401Z,12.15
2023-02-18T21:19:55.622Z,12.90
2023-02-18T21:22:22.860Z,17.67
2023-02-18T21:24:51.579Z,13.20
2023-02-18T21:27:18.831Z,14.88
2023-02-18T21:29:46.155Z,14.18
2023-02-18T21:32:13.542Z,15.95
2023-02-18T21:34:41.405Z,13.77
2023-02-18T21:37:08.898Z,16.83
2023-02-18T21:39:36.179Z,16.23
2023-02-18T21:42:04.572Z,16.08
2023-02-18T21:44:41.788Z,14.90
2023-02-18T21:47:10.578Z,15.52
2023-02-18T21:49:38.011Z,17.10
2023-02-18T21:52:08.602Z,17.20
2023-02-18T21:54:44.385Z,15.25
2023-02-18T21:57:19.771Z,17.67
2023-02-18T21:59:48.122Z,18.88
2023-02-18T22:04:50.752Z,16.38
2023-02-18T22:07:19.702Z,16.35
2023-02-18T22:09:48.794Z,18.17
2023-02-18T22:12:17.006Z,17.02
2023-02-18T22:14:44.768Z,19.70
2023-02-18T22:17:12.538Z,16.88
2023-02-18T22:19:40.233Z,18.30
2023-02-18T22:22:07.696Z,20.42
2023-02-18T22:24:35.207Z,20.00
2023-02-18T22:27:02.704Z,19.77
2023-02-18T22:29:31.865Z,21.48
2023-02-18T22:31:59.603Z,22.08
2023-02-18T22:34:26.966Z,18.90
2023-02-18T22:36:54.213Z,21.02
2023-02-18T22:39:24.312Z,21.20
2023-02-18T22:41:51.585Z,17.08
2023-02-18T22:44:19.125Z,19.20
2023-02-18T22:46:46.433Z,21.50
2023-02-18T22:49:14.288Z,21.13
2023-02-18T22:51:44.336Z,20.38
2023-02-18T22:54:16.225Z,21.25
2023-02-18T22:56:46.271Z,18.90
2023-02-18T22:59:19.415Z,20.25
2023-02-18T23:01:49.508Z,18.50
2023-02-18T23:04:20.981Z,20.35
2023-02-18T23:06:49.690Z,19.23
2023-02-18T23:09:25.085Z,17.10
2023-02-18T23:11:57.365Z,18.80
2023-02-18T23:14:28.113Z,18.40
2023-02-18T23:17:13.801Z,17.48
2023-02-18T23:19:53.884Z,20.20
2023-02-18T23:22:33.399Z,23.02
2023-02-18T23:25:01.911Z,20.48
2023-02-18T23:27:30.302Z,19.77
2023-02-18T23:32:27.686Z,19.17
2023-02-18T23:34:54.902Z,17.23
2023-02-18T23:37:43.825Z,19.15
2023-02-18T23:40:13.668Z,16.75
2023-02-18T23:42:40.995Z,18.75
2023-02-18T23:45:08.678Z,21.52
2023-02-18T23:47:35.869Z,20.15
2023-02-18T23:50:03.193Z,18.15
2023-02-18T23:52:30.609Z,18.48
2023-02-18T23:54:57.748Z,18.23
2023-02-18T23:57:25.038Z,18.02
2023-02-18T23:59:52.219Z,20.05
